Time;durP1;ratioP1;P1;durP2;ratioP2;P2;SDS_P1;SDS_P2;PMS_P1;PMS_P2;Temp;Humidity;BMP_temperature;BMP_pressure;BME280_temperature;BME280_humidity;BME280_pressure;Samples;Min_cycle;Max_cycle;Signal;HPM_P1;HPM_P2
2023/05/21 00:00:22;;;;;;;21.50;9.07;;;15.80;99.90;;;;;;4936703;29;20060;-78
2023/05/21 00:02:50;;;;;;;12.32;7.20;;;15.80;99.90;;;;;;4935811;29;20102;-78
2023/05/21 00:05:17;;;;;;;15.25;7.03;;;15.80;99.90;;;;;;4920345;29;20491;-75
2023/05/21 00:07:44;;;;;;;11.95;7.30;;;15.80;99.90;;;;;;4924168;29;20020;-78
2023/05/21 00:10:10;;;;;;;12.25;7.00;;;15.80;99.90;;;;;;4936429;29;20027;-79
2023/05/21 00:12:36;;;;;;;12.23;6.57;;;15.70;99.90;;;;;;4936611;29;20130;-80
2023/05/21 00:15:02;;;;;;;10.00;6.68;;;15.80;99.90;;;;;;4935659;29;20158;-77
2023/05/21 00:17:28;;;;;;;12.63;7.30;;;15.80;99.90;;;;;;4936312;29;20032;-77
2023/05/21 00:19:55;;;;;;;12.23;7.00;;;15.70;99.90;;;;;;4912704;29;20106;-80
2023/05/21 00:22:22;;;;;;;13.73;8.15;;;15.70;99.90;;;;;;4936618;29;20349;-78
2023/05/21 00:24:47;;;;;;;10.63;6.55;;;15.60;99.90;;;;;;4936476;29;20027;-76
2023/05/21 00:27:13;;;;;;;12.00;6.57;;;15.70;99.90;;;;;;4935969;29;20353;-80
2023/05/21 00:29:39;;;;;;;11.30;6.70;;;15.70;99.90;;;;;;4936488;29;20392;-80
2023/05/21 00:32:06;;;;;;;12.45;6.80;;;15.60;99.90;;;;;;4918817;29;20028;-77
2023/05/21 00:34:31;;;;;;;13.60;7.60;;;15.60;99.90;;;;;;4936246;29;20035;-76
2023/05/21 00:36:57;;;;;;;14.18;7.60;;;15.60;99.90;;;;;;4935856;29;20126;-77
2023/05/21 00:39:24;;;;;;;13.20;7.80;;;15.60;99.90;;;;;;4919208;29;20047;-76
2023/05/21 00:41:50;;;;;;;12.00;7.53;;;15.50;99.90;;;;;;4915712;29;20034;-79
2023/05/21 00:44:17;;;;;;;13.10;6.82;;;15.50;99.90;;;;;;4918372;29;20028;-78
2023/05/21 00:46:43;;;;;;;13.32;7.13;;;15.50;99.90;;;;;;4936352;29;20059;-77
2023/05/21 00:49:10;;;;;;;13.65;7.53;;;15.40;99.90;;;;;;4935803;29;20016;-79
2023/05/21 00:51:36;;;;;;;14.70;7.38;;;15.40;99.90;;;;;;4934296;29;20031;-81
2023/05/21 00:54:02;;;;;;;13.68;7.35;;;15.40;99.90;;;;;;4918668;29;20472;-77
2023/05/21 00:56:28;;;;;;;13.90;7.75;;;15.30;99.90;;;;;;4915592;29;20087;-79
2023/05/21 00:58:58;;;;;;;12.57;6.97;;;15.30;99.90;;;;;;4914385;29;20024;-79
2023/05/21 01:01:24;;;;;;;13.15;7.40;;;15.30;99.90;;;;;;4915399;29;20531;-77
2023/05/21 01:03:56;;;;;;;14.88;8.13;;;15.30;99.90;;;;;;4914556;29;20414;-80
2023/05/21 01:06:22;;;;;;;12.03;7.50;;;15.30;99.90;;;;;;4914380;29;20499;-76
2023/05/21 01:08:49;;;;;;;12.13;7.35;;;15.30;99.90;;;;;;4918723;29;20531;-77
2023/05/21 01:11:17;;;;;;;11.65;7.13;;;15.30;99.90;;;;;;4914411;29;20490;-77
2023/05/21 01:13:45;;;;;;;14.13;8.07;;;15.30;99.90;;;;;;4901242;29;20554;-77
2023/05/21 01:16:12;;;;;;;16.02;7.05;;;15.30;99.90;;;;;;4915537;29;20024;-77
2023/05/21 01:18:38;;;;;;;12.05;7.63;;;15.30;99.90;;;;;;4898248;29;20038;-76
2023/05/21 01:21:06;;;;;;;11.48;6.93;;;15.30;99.90;;;;;;4898030;29;20028;-77
2023/05/21 01:23:32;;;;;;;11.30;6.85;;;15.30;99.90;;;;;;4920088;29;20107;-76
2023/05/21 01:25:58;;;;;;;12.40;7.25;;;15.30;99.90;;;;;;4916352;29;20032;-78
2023/05/21 01:28:24;;;;;;;12.88;7.28;;;15.20;99.90;;;;;;4899154;29;20020;-76
2023/05/21 01:30:50;;;;;;;13.20;7.25;;;15.10;99.90;;;;;;4915259;29;20436;-78
2023/05/21 01:33:23;;;;;;;15.80;7.22;;;15.00;99.90;;;;;;4914976;29;21773;-76
2023/05/21 01:35:56;;;;;;;13.52;7.85;;;15.00;99.90;;;;;;4897513;29;20071;-78
2023/05/21 01:38:27;;;;;;;13.43;7.72;;;15.10;99.90;;;;;;4897741;29;20032;-75
2023/05/21 01:41:13;;;;;;;13.80;8.18;;;15.10;99.90;;;;;;4913509;29;20045;-75
2023/05/21 01:43:42;;;;;;;13.07;7.32;;;15.10;99.90;;;;;;4914950;29;20070;-76
2023/05/21 01:46:11;;;;;;;12.50;7.15;;;15.10;99.90;;;;;;4919069;29;20087;-77
2023/05/21 01:48:38;;;;;;;11.98;6.90;;;15.20;99.90;;;;;;4914862;29;20484;-78
2023/05/21 01:51:05;;;;;;;14.65;7.75;;;15.20;99.90;;;;;;4896631;29;20115;-76
2023/05/21 01:53:31;;;;;;;13.93;8.00;;;15.30;99.90;;;;;;4914303;29;20414;-78
2023/05/21 01:55:58;;;;;;;12.55;7.35;;;15.30;99.90;;;;;;4914740;29;20024;-75
2023/05/21 01:58:24;;;;;;;13.00;7.53;;;15.30;99.90;;;;;;4896585;29;20024;-77
2023/05/21 02:00:50;;;;;;;15.45;8.05;;;15.30;99.90;;;;;;4912792;29;20036;-75
2023/05/21 02:03:18;;;;;;;14.13;7.55;;;15.20;99.90;;;;;;4914504;29;20030;-75
2023/05/21 02:05:44;;;;;;;14.35;7.13;;;15.20;99.90;;;;;;4914617;29;20120;-76
2023/05/21 02:08:11;;;;;;;17.10;9.13;;;15.20;99.90;;;;;;4914413;29;20024;-75
2023/05/21 02:10:37;;;;;;;13.90;7.00;;;15.20;99.90;;;;;;4914193;29;20016;-77
2023/05/21 02:13:03;;;;;;;14.38;8.20;;;15.20;99.90;;;;;;4913458;29;20034;-78
2023/05/21 02:15:29;;;;;;;16.25;7.63;;;15.10;99.90;;;;;;4924597;29;20106;-78
2023/05/21 02:17:57;;;;;;;12.85;7.72;;;15.10;99.90;;;;;;4917376;29;20040;-76
2023/05/21 02:20:22;;;;;;;13.48;7.88;;;15.00;99.90;;;;;;4934527;29;20036;-77
2023/05/21 02:22:49;;;;;;;14.10;7.70;;;14.90;99.90;;;;;;4934674;29;20077;-74
2023/05/21 02:25:17;;;;;;;13.23;7.72;;;14.90;99.90;;;;;;4934795;29;20083;-76
2023/05/21 02:27:43;;;;;;;14.23;8.27;;;14.80;99.90;;;;;;4934744;29;20098;-77
2023/05/21 02:30:11;;;;;;;14.10;8.32;;;14.80;99.90;;;;;;4934258;29;20044;-77
2023/05/21 02:32:41;;;;;;;13.93;7.28;;;14.70;99.90;;;;;;4917492;29;20111;-77
2023/05/21 02:35:09;;;;;;;17.20;8.68;;;14.70;99.90;;;;;;4940657;29;20031;-74
2023/05/21 02:37:35;;;;;;;13.93;8.32;;;14.60;99.90;;;;;;4922977;29;20075;-76
2023/05/21 02:40:04;;;;;;;15.18;9.13;;;14.60;99.90;;;;;;4934772;29;20036;-78
2023/05/21 02:42:30;;;;;;;12.80;8.10;;;14.50;99.90;;;;;;4934491;29;20020;-78
2023/05/21 02:44:56;;;;;;;17.27;9.35;;;14.50;99.90;;;;;;4934407;29;20031;-75
2023/05/21 02:47:24;;;;;;;17.02;10.23;;;14.50;99.90;;;;;;4917453;29;20019;-77
2023/05/21 02:49:51;;;;;;;14.48;8.95;;;14.50;99.90;;;;;;4917520;29;20027;-76
2023/05/21 02:52:21;;;;;;;16.80;10.32;;;14.50;99.90;;;;;;4934482;29;20349;-75
2023/05/21 02:54:47;;;;;;;17.67;9.32;;;14.60;99.90;;;;;;4917657;29;20204;-78
2023/05/21 02:57:13;;;;;;;14.32;7.85;;;14.60;99.90;;;;;;4917153;29;20158;-78
2023/05/21 02:59:39;;;;;;;14.77;9.43;;;14.60;99.90;;;;;;4916926;29;20934;-79
2023/05/21 03:02:05;;;;;;;12.63;7.53;;;14.50;99.90;;;;;;4917436;29;20631;-78
2023/05/21 03:04:32;;;;;;;15.25;8.85;;;14.50;99.90;;;;;;4917225;29;20099;-77
2023/05/21 03:07:00;;;;;;;15.40;9.52;;;14.50;99.90;;;;;;4934493;29;20112;-78
2023/05/21 03:09:26;;;;;;;14.02;8.95;;;14.50;99.90;;;;;;4901872;29;20380;-78
2023/05/21 03:11:55;;;;;;;17.77;9.23;;;14.50;99.90;;;;;;4911584;29;20224;-74
2023/05/21 03:14:21;;;;;;;16.45;10.40;;;14.60;99.90;;;;;;4933914;29;20051;-76
2023/05/21 03:16:47;;;;;;;14.48;9.20;;;14.60;99.90;;;;;;4934509;29;20607;-76
2023/05/21 03:19:14;;;;;;;14.82;9.30;;;14.60;99.90;;;;;;4935524;29;20040;-75
2023/05/21 03:21:40;;;;;;;15.13;9.73;;;14.60;99.90;;;;;;4937310;29;20035;-78
2023/05/21 03:24:06;;;;;;;15.13;9.95;;;14.60;99.90;;;;;;4920701;29;20032;-76
2023/05/21 03:26:32;;;;;;;16.10;9.43;;;14.70;99.90;;;;;;4920233;29;20023;-77
2023/05/21 03:29:00;;;;;;;13.57;8.30;;;14.60;99.90;;;;;;4937581;29;20079;-78
2023/05/21 03:31:26;;;;;;;15.57;9.35;;;14.60;99.90;;;;;;4920300;29;20472;-78
2023/05/21 03:34:07;;;;;;;15.57;9.32;;;14.60;99.90;;;;;;4920387;29;20127;-77
2023/05/21 03:36:33;;;;;;;16.42;9.50;;;14.60;99.90;;;;;;4920302;29;20035;-77
2023/05/21 03:38:59;;;;;;;15.77;10.13;;;14.60;99.90;;;;;;4937315;29;20047;-77
2023/05/21 03:41:25;;;;;;;15.15;8.65;;;14.60;99.90;;;;;;4920058;29;20028;-74
2023/05/21 03:44:00;;;;;;;20.13;10.48;;;14.60;99.90;;;;;;4919967;29;20036;-75
2023/05/21 03:46:31;;;;;;;14.65;9.15;;;14.60;99.90;;;;;;4919600;29;20032;-75
2023/05/21 03:49:16;;;;;;;16.60;8.93;;;14.60;99.90;;;;;;4920180;29;20559;-76
2023/05/21 03:51:42;;;;;;;15.55;9.38;;;14.60;99.90;;;;;;4919910;29;20036;-78
2023/05/21 03:54:12;;;;;;;16.52;9.38;;;14.60;99.90;;;;;;4919722;29;20028;-77
2023/05/21 03:56:38;;;;;;;16.38;8.70;;;14.60;99.90;;;;;;4919617;29;20035;-77
2023/05/21 03:59:04;;;;;;;16.73;9.15;;;14.60;99.90;;;;;;4921922;29;20237;-75
2023/05/21 04:01:31;;;;;;;15.18;8.32;;;14.60;99.90;;;;;;4910449;29;20045;-78
2023/05/21 04:03:58;;;;;;;13.98;8.25;;;14.70;99.90;;;;;;4913513;29;20069;-78
2023/05/21 04:06:26;;;;;;;14.95;9.45;;;14.70;99.90;;;;;;4914745;29;20031;-78
2023/05/21 04:08:52;;;;;;;12.27;7.63;;;14.80;99.90;;;;;;4910267;29;20029;-79
2023/05/21 04:11:18;;;;;;;14.25;8.65;;;15.00;99.90;;;;;;4913579;29;20043;-78
2023/05/21 04:13:44;;;;;;;16.55;9.55;;;15.10;99.90;;;;;;4927799;29;20035;-74
2023/05/21 04:16:13;;;;;;;13.63;8.45;;;15.40;99.90;;;;;;4924290;29;20024;-78
2023/05/21 04:18:42;;;;;;;12.65;8.32;;;15.50;99.90;;;;;;4927286;29;20060;-77
2023/05/21 04:21:08;;;;;;;16.73;8.75;;;15.30;99.90;;;;;;4928169;29;20172;-77
2023/05/21 04:23:36;;;;;;;13.95;8.63;;;15.30;99.90;;;;;;4929658;29;20102;-78
2023/05/21 04:26:07;;;;;;;13.77;7.80;;;15.30;99.90;;;;;;4919161;29;20051;-79
2023/05/21 04:28:34;;;;;;;14.13;8.25;;;15.20;99.90;;;;;;4918736;29;20483;-78
2023/05/21 04:31:00;;;;;;;14.82;8.88;;;15.30;99.90;;;;;;4919088;29;20043;-78
2023/05/21 04:33:27;;;;;;;11.55;7.85;;;15.20;99.90;;;;;;4919265;29;20067;-76
2023/05/21 04:35:54;;;;;;;14.18;8.80;;;15.20;99.90;;;;;;4918618;29;20535;-76
2023/05/21 04:38:20;;;;;;;13.77;9.23;;;15.30;99.90;;;;;;4919175;29;20059;-76
2023/05/21 04:40:49;;;;;;;13.43;8.73;;;15.40;99.90;;;;;;4936297;29;20071;-79
2023/05/21 04:43:16;;;;;;;13.68;8.68;;;15.50;99.90;;;;;;4919134;29;20024;-79
2023/05/21 04:45:43;;;;;;;14.40;8.98;;;15.60;99.90;;;;;;4918885;29;20415;-79
2023/05/21 04:48:11;;;;;;;15.27;8.63;;;15.60;99.90;;;;;;4919147;29;20028;-78
2023/05/21 04:50:37;;;;;;;16.00;9.02;;;15.70;99.90;;;;;;4917792;29;20529;-79
2023/05/21 04:53:03;;;;;;;13.27;8.02;;;15.70;99.90;;;;;;4918813;29;20027;-78
2023/05/21 04:55:29;;;;;;;13.90;8.85;;;15.80;99.90;;;;;;4919082;29;20084;-77
2023/05/21 04:57:56;;;;;;;15.40;9.18;;;15.80;99.90;;;;;;4918676;29;20154;-76
2023/05/21 05:00:24;;;;;;;14.60;9.43;;;15.60;99.90;;;;;;4918976;29;20139;-78
2023/05/21 05:02:50;;;;;;;14.75;8.70;;;15.40;99.90;;;;;;4918764;29;20495;-78
2023/05/21 05:05:16;;;;;;;15.23;9.23;;;15.60;99.90;;;;;;4918641;29;20090;-77
2023/05/21 05:07:42;;;;;;;14.52;8.70;;;15.70;99.90;;;;;;4918492;29;20063;-77
2023/05/21 05:10:08;;;;;;;14.77;9.38;;;15.70;99.90;;;;;;4936120;29;20034;-79
2023/05/21 05:12:34;;;;;;;13.00;7.38;;;15.90;99.90;;;;;;4935047;29;20050;-80
2023/05/21 05:15:00;;;;;;;20.05;9.32;;;15.90;99.90;;;;;;4935763;29;20447;-81
2023/05/21 05:17:26;;;;;;;14.50;8.88;;;15.90;99.90;;;;;;4918679;29;20511;-78
2023/05/21 05:19:52;;;;;;;13.48;8.45;;;16.00;99.90;;;;;;4918388;29;20048;-76
2023/05/21 05:22:18;;;;;;;14.55;8.43;;;16.40;99.90;;;;;;4918486;29;20027;-79
2023/05/21 05:24:45;;;;;;;13.93;8.38;;;16.80;99.90;;;;;;4919839;29;20505;-78
2023/05/21 05:27:11;;;;;;;13.35;8.38;;;16.80;99.90;;;;;;4918492;29;20084;-76
2023/05/21 05:29:37;;;;;;;13.73;8.25;;;16.80;99.90;;;;;;4919148;29;20031;-78
2023/05/21 05:32:03;;;;;;;14.15;7.90;;;17.00;99.90;;;;;;4935898;29;20541;-76
2023/05/21 05:34:29;;;;;;;12.52;8.15;;;17.10;99.90;;;;;;4930932;29;20032;-78
2023/05/21 05:36:56;;;;;;;16.90;9.05;;;17.10;99.90;;;;;;4918719;29;20039;-79
2023/05/21 05:39:21;;;;;;;12.45;8.05;;;17.10;99.90;;;;;;4913878;29;20038;-79
2023/05/21 05:41:47;;;;;;;13.48;7.72;;;16.70;99.90;;;;;;4937731;29;20024;-77
2023/05/21 05:44:14;;;;;;;12.85;7.72;;;16.80;99.90;;;;;;4928766;29;20064;-77
2023/05/21 05:46:40;;;;;;;14.00;9.02;;;17.10;99.90;;;;;;4923322;29;20103;-78
2023/05/21 05:49:09;;;;;;;17.88;8.38;;;17.20;99.90;;;;;;4935086;29;20383;-77
2023/05/21 05:51:36;;;;;;;11.55;7.32;;;17.30;99.90;;;;;;4918903;29;20040;-79
2023/05/21 05:54:02;;;;;;;15.70;8.80;;;17.30;99.90;;;;;;4927545;29;20067;-78
2023/05/21 05:56:27;;;;;;;15.90;8.50;;;17.30;99.90;;;;;;4931984;29;20035;-79
2023/05/21 05:58:53;;;;;;;12.98;8.35;;;17.40;99.90;;;;;;4935822;29;20035;-78
2023/05/21 06:01:23;;;;;;;14.95;8.15;;;17.50;99.90;;;;;;4918138;29;20032;-77
2023/05/21 06:03:49;;;;;;;16.48;8.50;;;17.70;99.90;;;;;;4919471;29;20035;-77
2023/05/21 06:06:17;;;;;;;13.82;7.50;;;17.50;99.90;;;;;;4908170;29;20067;-76
2023/05/21 06:08:45;;;;;;;12.13;7.63;;;17.60;99.90;;;;;;4917705;29;20027;-78
2023/05/21 06:11:11;;;;;;;15.77;8.55;;;17.70;99.90;;;;;;4945835;29;20079;-77
2023/05/21 06:13:37;;;;;;;12.35;8.15;;;17.90;99.90;;;;;;4917403;29;20534;-77
2023/05/21 06:16:05;;;;;;;15.32;8.40;;;18.20;99.90;;;;;;4918835;29;20028;-76
2023/05/21 06:18:31;;;;;;;18.83;9.30;;;18.40;99.90;;;;;;4918407;29;20028;-78
2023/05/21 06:20:57;;;;;;;17.83;9.32;;;18.60;99.90;;;;;;4932838;29;20046;-77
2023/05/21 06:23:23;;;;;;;17.42;9.25;;;18.80;99.90;;;;;;4919363;29;20494;-79
2023/05/21 06:25:49;;;;;;;13.52;8.02;;;18.90;99.90;;;;;;4935331;29;20032;-76
2023/05/21 06:28:16;;;;;;;15.80;8.43;;;19.00;99.90;;;;;;4917726;29;20070;-78
2023/05/21 06:30:42;;;;;;;13.48;8.00;;;19.20;99.90;;;;;;4910316;29;20040;-78
2023/05/21 06:33:08;;;;;;;17.83;8.77;;;19.30;99.90;;;;;;4927552;29;20040;-77
2023/05/21 06:35:35;;;;;;;15.57;9.27;;;19.40;99.90;;;;;;4917415;29;20032;-78
2023/05/21 06:38:02;;;;;;;17.75;8.18;;;19.50;99.90;;;;;;4917451;29;20032;-75
2023/05/21 06:40:28;;;;;;;16.13;8.90;;;19.50;99.90;;;;;;4934506;29;20040;-78
2023/05/21 06:42:58;;;;;;;15.95;8.85;;;19.60;99.90;;;;;;4905204;29;20028;-77
2023/05/21 06:45:47;;;;;;;15.23;9.68;;;19.80;99.90;;;;;;4880301;29;20044;-78
2023/05/21 06:48:33;;;;;;;14.27;7.97;;;19.80;99.90;;;;;;4894162;29;20072;-81
2023/05/21 06:50:59;;;;;;;16.60;9.25;;;19.90;99.90;;;;;;4878747;29;20036;-80
2023/05/21 06:53:25;;;;;;;13.77;8.55;;;19.70;99.90;;;;;;4878884;29;20033;-79
2023/05/21 06:55:52;;;;;;;13.32;8.80;;;19.70;99.90;;;;;;4897854;29;20032;-77
2023/05/21 06:58:22;;;;;;;14.98;8.50;;;20.00;99.90;;;;;;4896467;29;20035;-78
2023/05/21 07:00:48;;;;;;;14.02;8.48;;;20.10;99.90;;;;;;4897355;29;20041;-78
2023/05/21 07:03:14;;;;;;;15.57;8.38;;;20.20;99.90;;;;;;4897746;29;20055;-78
2023/05/21 07:05:40;;;;;;;14.85;8.95;;;20.20;99.90;;;;;;4897606;29;20484;-78
2023/05/21 07:08:06;;;;;;;15.60;10.13;;;20.20;99.90;;;;;;4897231;29;20029;-79
2023/05/21 07:10:32;;;;;;;14.27;8.70;;;20.50;99.90;;;;;;4897049;29;20567;-79
2023/05/21 07:12:58;;;;;;;15.27;9.25;;;20.90;99.90;;;;;;4897202;29;20028;-77
2023/05/21 07:15:25;;;;;;;16.25;9.65;;;21.20;99.90;;;;;;4896888;29;20048;-78
2023/05/21 07:17:50;;;;;;;15.68;10.45;;;21.50;99.90;;;;;;4881871;29;20067;-77
2023/05/21 07:20:18;;;;;;;15.57;10.00;;;21.80;99.90;;;;;;4881400;29;20127;-77
2023/05/21 07:22:47;;;;;;;16.95;9.80;;;21.80;99.90;;;;;;4900670;29;20035;-78
2023/05/21 07:25:13;;;;;;;16.48;8.70;;;22.10;99.30;;;;;;4920665;29;20031;-77
2023/05/21 07:27:39;;;;;;;14.75;8.38;;;22.10;99.90;;;;;;4910607;29;20122;-77
2023/05/21 07:30:05;;;;;;;12.98;7.97;;;22.20;99.90;;;;;;4930508;29;20480;-76
2023/05/21 07:32:31;;;;;;;12.00;7.85;;;22.40;99.90;;;;;;4908679;29;20024;-78
2023/05/21 07:35:00;;;;;;;14.65;7.70;;;22.50;99.90;;;;;;4907524;29;20033;-75
2023/05/21 07:37:27;;;;;;;15.85;7.97;;;22.60;99.50;;;;;;4916756;29;20031;-77
2023/05/21 07:39:59;;;;;;;15.98;7.15;;;22.80;99.50;;;;;;4921010;29;20127;-77
2023/05/21 07:42:25;;;;;;;14.07;8.27;;;23.10;99.30;;;;;;4914842;29;20064;-78
2023/05/21 07:44:53;;;;;;;13.68;7.75;;;23.40;99.80;;;;;;4903335;29;20121;-78
2023/05/21 07:47:19;;;;;;;14.27;7.43;;;23.30;97.20;;;;;;4929434;29;20032;-78
2023/05/21 07:49:45;;;;;;;15.98;8.20;;;23.10;96.00;;;;;;4900600;29;20048;-80
2023/05/21 07:52:11;;;;;;;13.88;8.13;;;22.80;96.90;;;;;;4927126;29;20380;-78
2023/05/21 07:54:37;;;;;;;12.77;8.60;;;22.70;97.20;;;;;;4929070;29;20543;-76
2023/05/21 07:57:03;;;;;;;14.65;8.15;;;22.80;97.80;;;;;;4916992;29;20032;-78
2023/05/21 07:59:49;;;;;;;12.10;7.40;;;22.00;97.60;;;;;;4922750;29;20096;-78
2023/05/21 08:02:16;;;;;;;15.25;8.10;;;22.30;98.40;;;;;;4912157;29;20111;-77
2023/05/21 08:04:41;;;;;;;11.80;7.03;;;22.60;97.20;;;;;;4921474;29;20122;-77
2023/05/21 08:07:11;;;;;;;15.73;9.02;;;22.80;97.30;;;;;;4918453;29;20054;-77
2023/05/21 08:09:37;;;;;;;21.45;15.80;;;22.70;96.80;;;;;;4908516;29;20020;-77
2023/05/21 08:12:04;;;;;;;17.38;9.88;;;22.50;99.90;;;;;;4918412;29;20050;-78
2023/05/21 08:14:30;;;;;;;15.93;7.10;;;22.60;97.10;;;;;;4919885;29;20039;-77
2023/05/21 08:16:56;;;;;;;12.93;7.28;;;23.30;97.70;;;;;;4913567;29;20036;-78
2023/05/21 08:19:22;;;;;;;10.35;7.55;;;23.60;95.30;;;;;;4914582;29;20134;-77
2023/05/21 08:21:48;;;;;;;16.42;8.98;;;23.90;95.70;;;;;;4935614;29;20119;-78
2023/05/21 08:24:14;;;;;;;13.15;6.35;;;24.00;95.90;;;;;;4918760;29;20094;-78
2023/05/21 08:26:40;;;;;;;11.98;7.18;;;24.40;94.80;;;;;;4934646;29;20122;-81
2023/05/21 08:29:06;;;;;;;14.13;6.80;;;24.60;95.60;;;;;;4936238;29;20100;-80
2023/05/21 08:31:32;;;;;;;10.20;6.57;;;24.90;96.30;;;;;;4918946;29;20031;-78
2023/05/21 08:33:57;;;;;;;12.43;6.97;;;25.00;94.30;;;;;;4917632;29;20059;-79
2023/05/21 08:36:36;;;;;;;11.98;6.32;;;25.00;94.10;;;;;;4915630;29;20040;-80
2023/05/21 08:39:08;;;;;;;10.63;6.43;;;25.10;93.70;;;;;;4919265;29;20067;-77
2023/05/21 08:41:37;;;;;;;12.05;6.78;;;25.00;93.40;;;;;;4935927;29;20035;-76
2023/05/21 08:44:10;;;;;;;11.95;6.07;;;24.90;93.90;;;;;;4918876;29;20028;-79
2023/05/21 08:46:39;;;;;;;10.07;5.85;;;24.80;92.80;;;;;;4917795;29;20468;-76
2023/05/21 08:49:15;;;;;;;14.40;6.80;;;24.90;92.60;;;;;;4915992;29;20134;-76
2023/05/21 08:51:43;;;;;;;12.65;6.43;;;24.60;92.00;;;;;;4917639;29;20063;-78
2023/05/21 08:54:10;;;;;;;12.15;6.63;;;24.60;92.10;;;;;;4929189;29;20034;-77
2023/05/21 08:56:39;;;;;;;13.73;7.63;;;24.70;93.70;;;;;;4917989;29;20036;-76
2023/05/21 08:59:06;;;;;;;9.45;6.05;;;24.70;93.40;;;;;;4913767;29;20508;-76
2023/05/21 09:01:37;;;;;;;10.55;6.45;;;25.00;93.30;;;;;;4911463;29;20039;-74
2023/05/21 09:04:13;;;;;;;11.68;6.20;;;25.00;93.40;;;;;;4906571;29;20119;-77
2023/05/21 09:06:40;;;;;;;14.02;6.13;;;25.20;93.60;;;;;;4918350;29;20075;-78
2023/05/21 09:09:17;;;;;;;11.52;6.43;;;25.30;93.10;;;;;;4906873;29;20032;-78
2023/05/21 09:11:46;;;;;;;9.40;5.90;;;25.60;93.50;;;;;;4905364;29;20044;-78
2023/05/21 09:14:14;;;;;;;11.07;6.68;;;25.30;92.50;;;;;;4935723;29;20492;-81
2023/05/21 09:17:06;;;;;;;11.55;6.88;;;25.10;93.60;;;;;;4919349;29;20036;-79
2023/05/21 09:19:32;;;;;;;10.30;6.10;;;25.00;91.40;;;;;;4935240;29;20131;-79
2023/05/21 09:22:02;;;;;;;12.10;7.13;;;24.60;94.10;;;;;;4917594;29;20016;-79
2023/05/21 09:24:32;;;;;;;11.43;6.72;;;24.90;94.20;;;;;;4918227;29;20032;-78
2023/05/21 09:26:58;;;;;;;8.73;5.97;;;24.90;91.90;;;;;;4918288;29;20027;-80
2023/05/21 09:29:25;;;;;;;10.23;6.00;;;24.70;90.90;;;;;;4918157;29;20031;-80
2023/05/21 09:31:53;;;;;;;14.10;9.00;;;25.00;91.40;;;;;;4917954;29;20083;-77
2023/05/21 09:34:19;;;;;;;9.23;6.13;;;25.30;93.00;;;;;;4918503;29;20042;-80
2023/05/21 09:36:48;;;;;;;9.77;5.65;;;25.00;95.40;;;;;;4917635;29;20143;-77
2023/05/21 09:39:28;;;;;;;12.73;5.45;;;24.80;97.00;;;;;;4918135;29;20087;-77
2023/05/21 09:41:58;;;;;;;12.88;6.07;;;24.50;91.50;;;;;;4913801;29;20031;-80
2023/05/21 09:44:25;;;;;;;15.85;10.27;;;24.60;92.60;;;;;;4897884;29;20028;-79
2023/05/21 09:46:57;;;;;;;9.90;5.47;;;25.00;92.30;;;;;;4904103;29;20115;-77
2023/05/21 09:49:25;;;;;;;10.73;5.07;;;25.00;91.40;;;;;;4909005;29;20032;-79
2023/05/21 09:52:00;;;;;;;7.45;4.72;;;25.00;91.60;;;;;;4881688;29;20436;-77
2023/05/21 09:54:31;;;;;;;10.50;5.43;;;24.90;92.20;;;;;;4926094;29;20038;-80
2023/05/21 09:56:58;;;;;;;8.38;5.22;;;24.80;92.10;;;;;;4931151;29;20378;-79
2023/05/21 09:59:35;;;;;;;9.35;5.40;;;25.00;92.40;;;;;;4934949;29;20023;-79
2023/05/21 10:02:01;;;;;;;29.17;7.82;;;24.40;90.90;;;;;;4934488;29;20353;-81
2023/05/21 10:04:29;;;;;;;17.13;6.00;;;25.00;92.60;;;;;;4920330;29;20028;-79
2023/05/21 10:06:57;;;;;;;8.85;5.00;;;24.60;90.20;;;;;;4924415;29;20098;-80
2023/05/21 10:09:23;;;;;;;7.68;4.85;;;24.70;88.10;;;;;;4935154;29;20096;-78
2023/05/21 10:11:52;;;;;;;8.25;4.50;;;24.60;86.70;;;;;;4934601;29;20055;-76
2023/05/21 10:14:24;;;;;;;6.40;4.50;;;25.00;90.40;;;;;;4931376;29;20035;-79
2023/05/21 10:16:53;;;;;;;9.95;4.53;;;25.00;90.00;;;;;;4933445;29;20530;-79
2023/05/21 10:19:20;;;;;;;9.98;5.28;;;25.00;91.00;;;;;;4917187;29;20043;-77
2023/05/21 10:21:47;;;;;;;11.20;5.03;;;25.30;91.00;;;;;;4931840;29;20119;-78
2023/05/21 10:24:14;;;;;;;9.05;4.65;;;25.50;91.30;;;;;;4934558;29;20032;-78
2023/05/21 10:26:40;;;;;;;11.77;5.35;;;25.70;92.10;;;;;;4934467;29;20032;-80
2023/05/21 10:29:07;;;;;;;13.23;4.82;;;25.80;91.10;;;;;;4937410;29;20039;-77
2023/05/21 10:31:34;;;;;;;10.02;5.22;;;25.90;92.20;;;;;;4938668;29;20514;-77
2023/05/21 10:34:03;;;;;;;9.38;5.38;;;26.10;91.80;;;;;;4910046;29;20478;-78
2023/05/21 10:36:32;;;;;;;11.20;5.00;;;26.00;91.50;;;;;;4940080;29;20512;-80
2023/05/21 10:39:00;;;;;;;9.75;4.95;;;25.70;90.20;;;;;;4938449;29;20047;-79
2023/05/21 10:41:30;;;;;;;6.50;4.45;;;25.40;90.40;;;;;;4937088;29;20119;-81
2023/05/21 10:44:03;;;;;;;12.55;5.70;;;25.20;91.10;;;;;;4938401;29;20028;-77
2023/05/21 10:46:57;;;;;;;9.73;5.22;;;25.30;92.30;;;;;;4938194;29;20036;-79
2023/05/21 10:50:14;;;;;;;10.48;5.53;;;25.50;92.00;;;;;;4936250;29;20035;-77
2023/05/21 10:52:42;;;;;;;9.07;5.22;;;25.80;91.60;;;;;;4858309;29;20402;-77
2023/05/21 10:55:50;;;;;;;8.02;5.10;;;25.90;91.50;;;;;;4860049;29;20057;-78
2023/05/21 10:58:57;;;;;;;11.05;4.43;;;26.10;91.90;;;;;;4853769;29;20041;-79
2023/05/21 11:01:27;;;;;;;9.52;4.68;;;26.00;90.10;;;;;;4823934;29;20069;-80
2023/05/21 11:03:54;;;;;;;9.02;4.88;;;25.60;90.10;;;;;;4823552;29;20038;-81
2023/05/21 11:06:25;;;;;;;10.43;5.65;;;25.70;92.00;;;;;;4824543;29;20033;-80
2023/05/21 11:08:54;;;;;;;11.15;5.35;;;25.80;90.10;;;;;;4818845;29;20043;-78
2023/05/21 11:11:41;;;;;;;46.38;17.40;;;26.10;85.70;;;;;;4813490;29;20074;-77
2023/05/21 11:14:37;;;;;;;35.03;13.05;;;26.30;88.20;;;;;;4809082;29;20046;-79
2023/05/21 11:17:15;;;;;;;38.90;16.80;;;26.30;88.50;;;;;;4819452;29;20073;-79
2023/05/21 11:19:42;;;;;;;13.50;8.27;;;26.30;86.60;;;;;;4822706;29;20500;-78
2023/05/21 11:22:10;;;;;;;8.32;5.15;;;26.40;86.10;;;;;;4823080;29;20050;-77
2023/05/21 11:24:40;;;;;;;10.18;4.75;;;26.40;84.70;;;;;;4823336;29;20383;-76
2023/05/21 11:27:06;;;;;;;10.13;5.03;;;26.40;91.50;;;;;;4831584;29;20078;-79
2023/05/21 11:29:39;;;;;;;10.95;5.13;;;26.00;84.30;;;;;;4878980;29;20064;-75
2023/05/21 11:32:08;;;;;;;12.00;4.88;;;25.70;84.60;;;;;;4878943;29;20033;-78
2023/05/21 11:34:38;;;;;;;14.98;5.53;;;26.00;87.20;;;;;;4871734;29;20040;-75
2023/05/21 11:37:39;;;;;;;12.52;5.18;;;26.10;88.70;;;;;;4936374;29;20539;-80
2023/05/21 11:40:18;;;;;;;11.27;7.22;;;26.00;85.20;;;;;;4933389;29;20048;-77
2023/05/21 11:42:49;;;;;;;11.98;4.97;;;26.20;87.30;;;;;;4936960;29;20494;-77
2023/05/21 11:45:21;;;;;;;15.65;5.97;;;26.10;84.60;;;;;;4937282;29;20028;-76
2023/05/21 11:47:48;;;;;;;7.15;4.50;;;26.30;87.60;;;;;;4936273;29;20031;-77
2023/05/21 11:50:15;;;;;;;9.63;4.20;;;26.30;86.60;;;;;;4931494;29;20424;-75
2023/05/21 11:52:42;;;;;;;11.55;5.57;;;26.50;87.30;;;;;;4925554;29;20024;-80
2023/05/21 11:55:08;;;;;;;12.65;4.30;;;26.80;87.50;;;;;;4920771;29;20060;-75
2023/05/21 11:57:34;;;;;;;12.10;4.40;;;26.70;86.10;;;;;;4920407;29;20023;-77
2023/05/21 12:00:01;;;;;;;9.20;4.32;;;26.50;99.90;;;;;;4916953;29;20040;-79
2023/05/21 12:02:31;;;;;;;8.10;4.28;;;26.50;92.90;;;;;;4932304;29;20042;-78
2023/05/21 12:04:58;;;;;;;10.55;4.82;;;26.30;85.80;;;;;;4936778;29;20495;-79
2023/05/21 12:07:30;;;;;;;11.60;5.10;;;26.50;83.70;;;;;;4932687;29;20472;-75
2023/05/21 12:09:56;;;;;;;8.63;4.00;;;26.30;84.30;;;;;;4922928;29;20024;-80
2023/05/21 12:12:25;;;;;;;9.45;4.97;;;25.90;99.90;;;;;;4936809;29;20058;-82
2023/05/21 12:14:52;;;;;;;16.55;5.00;;;25.70;86.60;;;;;;4936759;29;20071;-83
2023/05/21 12:17:20;;;;;;;9.00;5.65;;;26.10;85.10;;;;;;4936920;29;20028;-81
2023/05/21 12:19:47;;;;;;;16.75;5.32;;;26.20;99.90;;;;;;4936803;29;20407;-79
2023/05/21 12:22:15;;;;;;;9.80;4.75;;;26.30;96.30;;;;;;4923372;29;20106;-81
2023/05/21 12:24:45;;;;;;;10.23;4.72;;;26.30;84.40;;;;;;4941615;29;20032;-75
2023/05/21 12:27:12;;;;;;;6.55;4.15;;;26.30;88.70;;;;;;4929311;29;20031;-80
2023/05/21 12:29:41;;;;;;;10.82;4.85;;;26.20;88.30;;;;;;4936820;29;20045;-81
2023/05/21 12:32:09;;;;;;;9.00;4.68;;;26.40;85.40;;;;;;4936727;29;20040;-82
2023/05/21 12:34:38;;;;;;;8.38;4.95;;;26.20;87.30;;;;;;4936279;29;20098;-76
2023/05/21 12:37:06;;;;;;;10.77;4.80;;;26.50;86.50;;;;;;4936350;29;20042;-83
2023/05/21 12:40:00;;;;;;;10.60;5.38;;;26.50;84.10;;;;;;4936198;29;20499;-79
2023/05/21 12:42:34;;;;;;;10.07;4.97;;;26.70;85.90;;;;;;4903728;29;20403;-78
2023/05/21 12:45:10;;;;;;;8.48;5.07;;;26.40;86.30;;;;;;4930350;29;20088;-79